sensor_id;sensor_type;location;lat;lon;timestamp;pressure;altitude;pressure_sealevel;temperature;humidity
8627;BME280;4351;51.422;6.794;2023-04-26T00:02:19;101906.19;;;3.75;100.00
8627;BME280;4351;51.422;6.794;2023-04-26T00:04:51;101905.19;;;3.84;100.00
8627;BME280;4351;51.422;6.794;2023-04-26T00:07:22;101916.16;;;3.62;100.00
8627;BME280;4351;51.422;6.794;2023-04-26T00:09:50;101911.66;;;3.64;100.00
8627;BME280;4351;51.422;6.794;2023-04-26T00:12:18;101908.09;;;3.65;100.00
8627;BME280;4351;51.422;6.794;2023-04-26T00:14:47;101903.75;;;3.56;100.00
8627;BME280;4351;51.422;6.794;2023-04-26T00:17:15;101904.75;;;3.49;100.00
8627;BME280;4351;51.422;6.794;2023-04-26T00:19:43;101905.56;;;3.52;100.00
8627;BME280;4351;51.422;6.794;2023-04-26T00:22:14;101906.44;;;3.54;100.00
8627;BME280;4351;51.422;6.794;2023-04-26T00:24:41;101904.72;;;3.50;100.00
8627;BME280;4351;51.422;6.794;2023-04-26T00:27:09;101902.06;;;3.47;100.00
8627;BME280;4351;51.422;6.794;2023-04-26T00:29:37;101898.50;;;3.48;100.00
8627;BME280;4351;51.422;6.794;2023-04-26T00:32:05;101905.31;;;3.71;100.00
8627;BME280;4351;51.422;6.794;2023-04-26T00:34:34;101902.03;;;3.50;100.00
8627;BME280;4351;51.422;6.794;2023-04-26T00:37:03;101904.88;;;3.36;100.00
8627;BME280;4351;51.422;6.794;2023-04-26T00:39:32;101905.56;;;3.52;100.00
8627;BME280;4351;51.422;6.794;2023-04-26T00:42:00;101906.53;;;3.47;100.00
8627;BME280;4351;51.422;6.794;2023-04-26T00:44:28;101918.31;;;3.27;100.00
8627;BME280;4351;51.422;6.794;2023-04-26T00:46:56;101905.06;;;3.19;100.00
8627;BME280;4351;51.422;6.794;2023-04-26T00:49:24;101895.19;;;3.27;100.00
8627;BME280;4351;51.422;6.794;2023-04-26T00:51:52;101911.47;;;2.99;100.00
8627;BME280;4351;51.422;6.794;2023-04-26T00:54:21;101900.63;;;3.18;100.00
8627;BME280;4351;51.422;6.794;2023-04-26T00:56:50;101907.88;;;3.06;100.00
8627;BME280;4351;51.422;6.794;2023-04-26T00:59:19;101904.31;;;3.04;100.00
8627;BME280;4351;51.422;6.794;2023-04-26T01:01:47;101905.34;;;2.91;100.00
8627;BME280;4351;51.422;6.794;2023-04-26T01:04:15;101907.94;;;3.00;100.00
8627;BME280;4351;51.422;6.794;2023-04-26T01:06:44;101904.34;;;3.01;100.00
8627;BME280;4351;51.422;6.794;2023-04-26T01:09:12;101907.91;;;2.98;100.00
8627;BME280;4351;51.422;6.794;2023-04-26T01:11:42;101907.91;;;3.02;100.00
8627;BME280;4351;51.422;6.794;2023-04-26T01:14:13;101910.59;;;3.00;100.00
8627;BME280;4351;51.422;6.794;2023-04-26T01:16:41;101902.47;;;3.13;100.00
8627;BME280;4351;51.422;6.794;2023-04-26T01:19:12;101906.06;;;3.08;100.00
8627;BME280;4351;51.422;6.794;2023-04-26T01:21:41;101904.34;;;3.01;100.00
8627;BME280;4351;51.422;6.794;2023-04-26T01:24:12;101912.47;;;2.89;100.00
8627;BME280;4351;51.422;6.794;2023-04-26T01:26:40;101918.75;;;2.81;100.00
8627;BME280;4351;51.422;6.794;2023-04-26T01:29:14;101916.03;;;2.87;100.00
8627;BME280;4351;51.422;6.794;2023-04-26T01:31:42;101917.75;;;2.95;100.00
8627;BME280;4351;51.422;6.794;2023-04-26T01:34:10;101928.59;;;2.73;100.00
8627;BME280;4351;51.422;6.794;2023-04-26T01:36:38;101919.84;;;2.58;100.00
8627;BME280;4351;51.422;6.794;2023-04-26T01:39:06;101920.59;;;2.73;100.00
8627;BME280;4351;51.422;6.794;2023-04-26T01:41:36;101916.09;;;2.83;100.00
8627;BME280;4351;51.422;6.794;2023-04-26T01:44:04;101916.84;;;2.96;100.00
8627;BME280;4351;51.422;6.794;2023-04-26T01:46:32;101926.81;;;2.73;100.00
8627;BME280;4351;51.422;6.794;2023-04-26T01:49:00;101929.59;;;2.59;100.00
8627;BME280;4351;51.422;6.794;2023-04-26T01:51:28;101918.75;;;2.83;100.00
8627;BME280;4351;51.422;6.794;2023-04-26T01:53:56;101915.25;;;2.78;100.00
8627;BME280;4351;51.422;6.794;2023-04-26T01:56:24;101921.50;;;2.70;100.00
8627;BME280;4351;51.422;6.794;2023-04-26T01:58:53;101922.47;;;2.64;100.00
8627;BME280;4351;51.422;6.794;2023-04-26T02:01:22;101925.06;;;2.71;100.00
8627;BME280;4351;51.422;6.794;2023-04-26T02:03:51;101925.81;;;2.85;100.00
8627;BME280;4351;51.422;6.794;2023-04-26T02:06:19;101939.22;;;2.81;100.00
8627;BME280;4351;51.422;6.794;2023-04-26T02:08:47;101937.41;;;2.81;100.00
8627;BME280;4351;51.422;6.794;2023-04-26T02:11:16;101933.88;;;2.79;100.00
8627;BME280;4351;51.422;6.794;2023-04-26T02:13:43;101941.94;;;2.73;100.00
8627;BME280;4351;51.422;6.794;2023-04-26T02:16:13;101933.91;;;2.78;100.00
8627;BME280;4351;51.422;6.794;2023-04-26T02:18:44;101929.59;;;2.62;100.00
8627;BME280;4351;51.422;6.794;2023-04-26T02:21:12;101932.22;;;2.67;100.00
8627;BME280;4351;51.422;6.794;2023-04-26T02:23:40;101930.53;;;2.57;100.00
8627;BME280;4351;51.422;6.794;2023-04-26T02:26:08;101935.81;;;2.60;100.00
8627;BME280;4351;51.422;6.794;2023-04-26T02:28:37;101943.81;;;2.58;100.00
8627;BME280;4351;51.422;6.794;2023-04-26T02:31:05;101938.31;;;2.80;100.00
8627;BME280;4351;51.422;6.794;2023-04-26T02:33:34;101936.72;;;2.57;100.00
8627;BME280;4351;51.422;6.794;2023-04-26T02:36:03;101942.00;;;2.63;100.00
8627;BME280;4351;51.422;6.794;2023-04-26T02:38:32;101935.78;;;2.68;100.00
8627;BME280;4351;51.422;6.794;2023-04-26T02:41:03;101934.84;;;2.72;100.00
8627;BME280;4351;51.422;6.794;2023-04-26T02:43:32;101937.66;;;2.51;100.00
8627;BME280;4351;51.422;6.794;2023-04-26T02:46:00;101937.75;;;2.36;100.00
8627;BME280;4351;51.422;6.794;2023-04-26T02:48:29;101935.06;;;2.40;100.00
8627;BME280;4351;51.422;6.794;2023-04-26T02:50:59;101932.34;;;2.50;100.00
8627;BME280;4351;51.422;6.794;2023-04-26T02:53:27;101928.75;;;2.54;100.00
8627;BME280;4351;51.422;6.794;2023-04-26T02:55:55;101933.28;;;2.46;100.00
8627;BME280;4351;51.422;6.794;2023-04-26T02:58:23;101932.28;;;2.58;100.00
8627;BME280;4351;51.422;6.794;2023-04-26T03:00:51;101938.47;;;2.61;100.00
8627;BME280;4351;51.422;6.794;2023-04-26T03:03:20;101923.50;;;2.48;100.00
8627;BME280;4351;51.422;6.794;2023-04-26T03:05:50;101931.53;;;2.35;100.00
8627;BME280;4351;51.422;6.794;2023-04-26T03:08:19;101932.41;;;2.40;100.00
8627;BME280;4351;51.422;6.794;2023-04-26T03:10:48;101938.63;;;2.39;100.00
8627;BME280;4351;51.422;6.794;2023-04-26T03:13:16;101932.34;;;2.48;100.00
8627;BME280;4351;51.422;6.794;2023-04-26T03:15:44;101928.75;;;2.52;100.00
8627;BME280;4351;51.422;6.794;2023-04-26T03:18:12;101935.88;;;2.50;100.00
8627;BME280;4351;51.422;6.794;2023-04-26T03:20:40;101935.06;;;2.42;100.00
8627;BME280;4351;51.422;6.794;2023-04-26T03:23:08;101927.97;;;2.39;100.00
8627;BME280;4351;51.422;6.794;2023-04-26T03:25:38;101926.25;;;2.29;100.00
8627;BME280;4351;51.422;6.794;2023-04-26T03:28:07;101928.84;;;2.43;100.00
8627;BME280;4351;51.422;6.794;2023-04-26T03:30:35;101931.53;;;2.38;100.00
8627;BME280;4351;51.422;6.794;2023-04-26T03:33:03;101927.06;;;2.40;100.00
8627;BME280;4351;51.422;6.794;2023-04-26T03:35:31;101929.69;;;2.50;100.00
8627;BME280;4351;51.422;6.794;2023-04-26T03:38:00;101921.69;;;2.48;100.00
8627;BME280;4351;51.422;6.794;2023-04-26T03:40:28;101920.66;;;2.63;100.00
8627;BME280;4351;51.422;6.794;2023-04-26T03:42:57;101920.78;;;2.54;100.00
8627;BME280;4351;51.422;6.794;2023-04-26T03:45:25;101924.34;;;2.51;100.00
8627;BME280;4351;51.422;6.794;2023-04-26T03:47:53;101929.63;;;2.56;100.00
8627;BME280;4351;51.422;6.794;2023-04-26T03:50:22;101918.19;;;2.43;100.00
8627;BME280;4351;51.422;6.794;2023-04-26T03:52:50;101922.56;;;2.49;100.00
8627;BME280;4351;51.422;6.794;2023-04-26T03:55:18;101920.84;;;2.45;100.00
8627;BME280;4351;51.422;6.794;2023-04-26T03:57:47;101921.72;;;2.44;100.00
8627;BME280;4351;51.422;6.794;2023-04-26T04:00:16;101926.22;;;2.35;100.00
8627;BME280;4351;51.422;6.794;2023-04-26T04:02:47;101924.41;;;2.37;100.00
8627;BME280;4351;51.422;6.794;2023-04-26T04:05:22;101931.59;;;2.32;100.00
8627;BME280;4351;51.422;6.794;2023-04-26T04:07:50;101937.69;;;2.47;100.00
8627;BME280;4351;51.422;6.794;2023-04-26T04:10:19;101933.22;;;2.49;100.00
8627;BME280;4351;51.422;6.794;2023-04-26T04:12:48;101936.88;;;2.35;100.00
8627;BME280;4351;51.422;6.794;2023-04-26T04:15:18;101936.97;;;2.20;100.00
8627;BME280;4351;51.422;6.794;2023-04-26T04:17:47;101937.81;;;2.26;100.00
8627;BME280;4351;51.422;6.794;2023-04-26T04:20:15;101940.38;;;2.42;100.00
8627;BME280;4351;51.422;6.794;2023-04-26T04:22:43;101944.00;;;2.33;100.00
8627;BME280;4351;51.422;6.794;2023-04-26T04:25:11;101946.69;;;2.30;100.00
8627;BME280;4351;51.422;6.794;2023-04-26T04:27:41;101951.06;;;2.40;100.00
8627;BME280;4351;51.422;6.794;2023-04-26T04:30:10;101949.13;;;2.61;100.00
8627;BME280;4351;51.422;6.794;2023-04-26T04:32:40;101959.03;;;2.45;100.00
8627;BME280;4351;51.422;6.794;2023-04-26T04:35:11;101959.84;;;2.50;100.00
8627;BME280;4351;51.422;6.794;2023-04-26T04:37:40;101958.94;;;2.53;100.00
8627;BME280;4351;51.422;6.794;2023-04-26T04:40:10;101960.84;;;2.38;100.00
8627;BME280;4351;51.422;6.794;2023-04-26T04:42:42;101958.16;;;2.38;100.00
8627;BME280;4351;51.422;6.794;2023-04-26T04:45:12;101953.69;;;2.44;100.00
8627;BME280;4351;51.422;6.794;2023-04-26T04:47:42;101960.88;;;2.32;100.00
8627;BME280;4351;51.422;6.794;2023-04-26T04:50:11;101964.47;;;2.25;100.00
8627;BME280;4351;51.422;6.794;2023-04-26T04:52:38;101964.31;;;2.48;100.00
8627;BME280;4351;51.422;6.794;2023-04-26T04:55:08;101965.34;;;2.27;100.00
8627;BME280;4351;51.422;6.794;2023-04-26T04:57:37;101967.00;;;2.45;100.00
8627;BME280;4351;51.422;6.794;2023-04-26T05:00:09;101969.56;;;2.62;100.00
8627;BME280;4351;51.422;6.794;2023-04-26T05:02:47;101973.09;;;2.68;100.00
8627;BME280;4351;51.422;6.794;2023-04-26T05:05:16;101979.28;;;2.70;100.00
8627;BME280;4351;51.422;6.794;2023-04-26T05:07:43;101970.38;;;2.74;100.00
8627;BME280;4351;51.422;6.794;2023-04-26T05:10:12;101968.47;;;2.89;100.00
8627;BME280;4351;51.422;6.794;2023-04-26T05:12:40;101980.94;;;2.83;100.00
8627;BME280;4351;51.422;6.794;2023-04-26T05:15:09;101982.69;;;2.86;100.00
8627;BME280;4351;51.422;6.794;2023-04-26T05:17:38;101981.69;;;2.99;100.00
8627;BME280;4351;51.422;6.794;2023-04-26T05:20:16;101986.03;;;3.10;100.00
8627;BME280;4351;51.422;6.794;2023-04-26T05:22:45;101986.00;;;3.15;100.00
8627;BME280;4351;51.422;6.794;2023-04-26T05:25:13;101986.91;;;3.15;100.00
8627;BME280;4351;51.422;6.794;2023-04-26T05:27:45;101984.16;;;3.21;100.00
8627;BME280;4351;51.422;6.794;2023-04-26T05:30:29;101984.84;;;3.44;100.00
8627;BME280;4351;51.422;6.794;2023-04-26T05:33:11;101968.66;;;3.58;100.00
8627;BME280;4351;51.422;6.794;2023-04-26T05:35:48;101970.25;;;3.75;100.00
8627;BME280;4351;51.422;6.794;2023-04-26T05:38:20;101966.63;;;3.81;100.00
8627;BME280;4351;51.422;6.794;2023-04-26T05:40:48;101971.78;;;3.96;100.00
8627;BME280;4351;51.422;6.794;2023-04-26T05:43:16;101972.56;;;4.05;100.00
8627;BME280;4351;51.422;6.794;2023-04-26T05:45:49;101969.03;;;3.99;100.00
8627;BME280;4351;51.422;6.794;2023-04-26T05:48:19;101967.09;;;4.14;100.00
8627;BME280;4351;51.422;6.794;2023-04-26T05:50:48;101967.28;;;4.01;100.00
8627;BME280;4351;51.422;6.794;2023-04-26T05:53:17;101968.91;;;4.12;100.00
8627;BME280;4351;51.422;6.794;2023-04-26T05:55:46;101969.78;;;4.11;100.00
8627;BME280;4351;51.422;6.794;2023-04-26T05:58:14;101966.56;;;4.52;100.00
8627;BME280;4351;51.422;6.794;2023-04-26T06:00:43;101962.97;;;4.53;100.00
8627;BME280;4351;51.422;6.794;2023-04-26T06:03:11;101971.88;;;4.53;100.00
8627;BME280;4351;51.422;6.794;2023-04-26T06:05:40;101960.09;;;4.67;100.00
8627;BME280;4351;51.422;6.794;2023-04-26T06:08:11;101955.59;;;4.67;100.00
8627;BME280;4351;51.422;6.794;2023-04-26T06:10:39;101957.78;;;4.97;100.00
8627;BME280;4351;51.422;6.794;2023-04-26T06:13:06;101967.75;;;4.87;100.00
8627;BME280;4351;51.422;6.794;2023-04-26T06:15:36;101963.63;;;5.21;100.00
8627;BME280;4351;51.422;6.794;2023-04-26T06:18:04;101964.63;;;5.15;100.00
8627;BME280;4351;51.422;6.794;2023-04-26T06:20:32;101957.34;;;5.24;100.00
8627;BME280;4351;51.422;6.794;2023-04-26T06:23:05;101964.28;;;5.34;100.00
8627;BME280;4351;51.422;6.794;2023-04-26T06:25:35;101961.44;;;5.44;100.00
8627;BME280;4351;51.422;6.794;2023-04-26T06:28:03;101955.81;;;5.56;100.00
8627;BME280;4351;51.422;6.794;2023-04-26T06:30:33;101954.59;;;5.73;100.00
8627;BME280;4351;51.422;6.794;2023-04-26T06:33:02;101954.16;;;5.93;100.00
8627;BME280;4351;51.422;6.794;2023-04-26T06:35:32;101942.13;;;6.15;100.00
8627;BME280;4351;51.422;6.794;2023-04-26T06:38:02;101941.91;;;6.24;100.00
8627;BME280;4351;51.422;6.794;2023-04-26T06:40:33;101940.53;;;6.46;100.00
8627;BME280;4351;51.422;6.794;2023-04-26T06:43:04;101937.84;;;6.47;100.00
8627;BME280;4351;51.422;6.794;2023-04-26T06:45:32;101930.16;;;6.68;100.00
8627;BME280;4351;51.422;6.794;2023-04-26T06:48:00;101926.41;;;6.75;100.00
8627;BME280;4351;51.422;6.794;2023-04-26T06:50:31;101913.69;;;6.84;100.00
8627;BME280;4351;51.422;6.794;2023-04-26T06:53:02;101906.19;;;6.97;100.00
8627;BME280;4351;51.422;6.794;2023-04-26T06:55:30;101903.38;;;7.01;100.00
8627;BME280;4351;51.422;6.794;2023-04-26T06:57:59;101897.00;;;7.06;100.00
8627;BME280;4351;51.422;6.794;2023-04-26T07:00:29;101891.41;;;7.13;100.00
8627;BME280;4351;51.422;6.794;2023-04-26T07:02:57;101894.09;;;7.13;100.00
8627;BME280;4351;51.422;6.794;2023-04-26T07:05:26;101889.09;;;7.33;100.00
8627;BME280;4351;51.422;6.794;2023-04-26T07:07:55;101889.59;;;7.47;100.00
8627;BME280;4351;51.422;6.794;2023-04-26T07:10:25;101888.94;;;7.39;100.00
8627;BME280;4351;51.422;6.794;2023-04-26T07:12:54;101896.16;;;7.37;100.00
8627;BME280;4351;51.422;6.794;2023-04-26T07:15:22;101891.13;;;7.56;100.00
8627;BME280;4351;51.422;6.794;2023-04-26T07:17:54;101884.88;;;7.56;100.00
8627;BME280;4351;51.422;6.794;2023-04-26T07:20:23;101888.25;;;7.63;100.00
8627;BME280;4351;51.422;6.794;2023-04-26T07:22:51;101875.63;;;7.95;100.00
8627;BME280;4351;51.422;6.794;2023-04-26T07:25:19;101868.59;;;7.91;100.00
8627;BME280;4351;51.422;6.794;2023-04-26T07:27:48;101869.31;;;8.25;100.00
8627;BME280;4351;51.422;6.794;2023-04-26T07:30:18;101866.91;;;8.44;100.00
8627;BME280;4351;51.422;6.794;2023-04-26T07:32:46;101865.06;;;8.46;100.00
8627;BME280;4351;51.422;6.794;2023-04-26T07:35:18;101862.03;;;8.57;100.00
8627;BME280;4351;51.422;6.794;2023-04-26T07:37:47;101864.66;;;8.30;100.00
8627;BME280;4351;51.422;6.794;2023-04-26T07:40:17;101864.09;;;8.47;100.00
8627;BME280;4351;51.422;6.794;2023-04-26T07:42:48;101864.06;;;8.49;100.00
8627;BME280;4351;51.422;6.794;2023-04-26T07:45:17;101863.41;;;8.42;100.00
8627;BME280;4351;51.422;6.794;2023-04-26T07:47:45;101868.97;;;8.36;100.00
8627;BME280;4351;51.422;6.794;2023-04-26T07:50:13;101862.13;;;8.25;100.00
8627;BME280;4351;51.422;6.794;2023-04-26T07:52:45;101862.75;;;8.34;100.00
8627;BME280;4351;51.422;6.794;2023-04-26T07:55:13;101856.25;;;8.41;100.00
8627;BME280;4351;51.422;6.794;2023-04-26T07:57:43;101855.69;;;8.60;100.00
8627;BME280;4351;51.422;6.794;2023-04-26T08:00:15;101858.84;;;8.71;100.00
8627;BME280;4351;51.422;6.794;2023-04-26T08:02:44;101861.91;;;8.60;100.00
8627;BME280;4351;51.422;6.794;2023-04-26T08:05:14;101862.31;;;8.48;100.00
8627;BME280;4351;51.422;6.794;2023-04-26T08:07:42;101862.38;;;8.45;100.00
8627;BME280;4351;51.422;6.794;2023-04-26T08:10:12;101857.69;;;8.51;100.00
8627;BME280;4351;51.422;6.794;2023-04-26T08:12:40;101853.59;;;8.68;100.00
8627;BME280;4351;51.422;6.794;2023-04-26T08:15:09;101850.41;;;8.82;100.00
8627;BME280;4351;51.422;6.794;2023-04-26T08:17:38;101839.63;;;8.82;100.00
8627;BME280;4351;51.422;6.794;2023-04-26T08:20:08;101842.47;;;8.78;100.00
8627;BME280;4351;51.422;6.794;2023-04-26T08:22:38;101859.72;;;8.72;100.00
8627;BME280;4351;51.422;6.794;2023-04-26T08:25:07;101850.47;;;8.81;100.00
8627;BME280;4351;51.422;6.794;2023-04-26T08:27:37;101846.34;;;8.96;100.00
8627;BME280;4351;51.422;6.794;2023-04-26T08:30:09;101856.22;;;8.70;100.00
8627;BME280;4351;51.422;6.794;2023-04-26T08:32:38;101854.81;;;8.58;100.00
8627;BME280;4351;51.422;6.794;2023-04-26T08:35:07;101841.69;;;9.01;100.00
8627;BME280;4351;51.422;6.794;2023-04-26T08:37:36;101845.94;;;9.07;100.00
8627;BME280;4351;51.422;6.794;2023-04-26T08:40:06;101848.97;;;8.97;100.00
8627;BME280;4351;51.422;6.794;2023-04-26T08:42:39;101841.44;;;9.07;100.00
8627;BME280;4351;51.422;6.794;2023-04-26T08:45:10;101842.75;;;9.45;100.00
8627;BME280;4351;51.422;6.794;2023-04-26T08:47:42;101832.16;;;9.40;100.00
8627;BME280;4351;51.422;6.794;2023-04-26T08:50:12;101843.34;;;9.29;100.00
8627;BME280;4351;51.422;6.794;2023-04-26T08:52:42;101836.34;;;9.24;100.00
8627;BME280;4351;51.422;6.794;2023-04-26T08:55:10;101854.56;;;8.91;100.00
8627;BME280;4351;51.422;6.794;2023-04-26T08:57:42;101854.03;;;8.81;100.00
8627;BME280;4351;51.422;6.794;2023-04-26T09:00:15;101853.81;;;8.88;100.00
8627;BME280;4351;51.422;6.794;2023-04-26T09:02:46;101836.56;;;9.19;100.00
8627;BME280;4351;51.422;6.794;2023-04-26T09:05:15;101849.38;;;9.36;100.00
8627;BME280;4351;51.422;6.794;2023-04-26T09:07:44;101848.97;;;9.23;100.00
8627;BME280;4351;51.422;6.794;2023-04-26T09:10:18;101852.16;;;8.83;100.00
8627;BME280;4351;51.422;6.794;2023-04-26T09:12:50;101852.09;;;9.11;100.00
8627;BME280;4351;51.422;6.794;2023-04-26T09:15:20;101850.66;;;9.26;100.00
8627;BME280;4351;51.422;6.794;2023-04-26T09:17:49;101854.63;;;8.90;100.00
8627;BME280;4351;51.422;6.794;2023-04-26T09:20:20;101861.50;;;8.99;100.00
8627;BME280;4351;51.422;6.794;2023-04-26T09:22:51;101861.66;;;8.94;100.00
8627;BME280;4351;51.422;6.794;2023-04-26T09:25:26;101851.06;;;9.15;100.00
8627;BME280;4351;51.422;6.794;2023-04-26T09:28:00;101860.56;;;9.00;100.00
8627;BME280;4351;51.422;6.794;2023-04-26T09:30:36;101866.81;;;9.00;100.00
8627;BME280;4351;51.422;6.794;2023-04-26T09:33:05;101844.50;;;9.22;100.00
8627;BME280;4351;51.422;6.794;2023-04-26T09:35:36;101849.19;;;9.17;100.00
8627;BME280;4351;51.422;6.794;2023-04-26T09:38:06;101842.94;;;9.16;100.00
8627;BME280;4351;51.422;6.794;2023-04-26T09:40:41;101837.13;;;9.51;100.00
8627;BME280;4351;51.422;6.794;2023-04-26T09:43:12;101840.47;;;9.10;100.00
8627;BME280;4351;51.422;6.794;2023-04-26T09:45:45;101836.41;;;9.22;100.00
8627;BME280;4351;51.422;6.794;2023-04-26T09:48:18;101844.09;;;9.33;100.00
8627;BME280;4351;51.422;6.794;2023-04-26T09:50:49;101831.41;;;9.37;100.00
8627;BME280;4351;51.422;6.794;2023-04-26T09:53:29;101831.63;;;9.30;100.00
8627;BME280;4351;51.422;6.794;2023-04-26T09:56:05;101819.00;;;9.79;100.00
8627;BME280;4351;51.422;6.794;2023-04-26T09:58:36;101806.59;;;9.97;100.00
8627;BME280;4351;51.422;6.794;2023-04-26T10:01:05;101797.81;;;10.35;100.00
8627;BME280;4351;51.422;6.794;2023-04-26T10:03:34;101802.47;;;10.32;100.00
8627;BME280;4351;51.422;6.794;2023-04-26T10:06:03;101794.66;;;10.46;100.00
8627;BME280;4351;51.422;6.794;2023-04-26T10:08:32;101796.41;;;10.27;100.00
8627;BME280;4351;51.422;6.794;2023-04-26T10:11:02;101805.72;;;9.97;100.00
8627;BME280;4351;51.422;6.794;2023-04-26T10:13:31;101803.47;;;10.29;100.00
8627;BME280;4351;51.422;6.794;2023-04-26T10:16:01;101784.94;;;10.21;100.00
8627;BME280;4351;51.422;6.794;2023-04-26T10:18:30;101800.94;;;10.04;100.00
8627;BME280;4351;51.422;6.794;2023-04-26T10:21:00;101782.00;;;10.49;100.00
8627;BME280;4351;51.422;6.794;2023-04-26T10:23:30;101789.00;;;10.32;100.00
8627;BME280;4351;51.422;6.794;2023-04-26T10:25:59;101799.56;;;10.16;100.00
8627;BME280;4351;51.422;6.794;2023-04-26T10:28:53;101798.13;;;10.07;100.00
8627;BME280;4351;51.422;6.794;2023-04-26T10:34:33;101782.47;;;10.38;100.00
8627;BME280;4351;51.422;6.794;2023-04-26T10:37:12;101772.81;;;10.32;100.00
8627;BME280;4351;51.422;6.794;2023-04-26T10:39:40;101792.31;;;9.95;100.00
8627;BME280;4351;51.422;6.794;2023-04-26T10:42:23;101803.00;;;9.74;100.00
8627;BME280;4351;51.422;6.794;2023-04-26T10:44:52;101796.94;;;9.69;100.00
8627;BME280;4351;51.422;6.794;2023-04-26T10:47:23;101790.69;;;9.91;100.00
8627;BME280;4351;51.422;6.794;2023-04-26T10:50:00;101787.28;;;10.08;100.00
8627;BME280;4351;51.422;6.794;2023-04-26T10:52:31;101778.72;;;10.19;100.00
8627;BME280;4351;51.422;6.794;2023-04-26T10:54:59;101778.59;;;10.22;100.00
8627;BME280;4351;51.422;6.794;2023-04-26T10:57:47;101769.31;;;10.30;100.00
8627;BME280;4351;51.422;6.794;2023-04-26T11:00:16;101757.34;;;10.35;100.00
8627;BME280;4351;51.422;6.794;2023-04-26T11:02:52;101749.84;;;10.44;100.00
8627;BME280;4351;51.422;6.794;2023-04-26T11:05:40;101751.16;;;10.96;100.00
8627;BME280;4351;51.422;6.794;2023-04-26T11:08:15;101756.34;;;11.01;100.00
8627;BME280;4351;51.422;6.794;2023-04-26T11:10:49;101774.03;;;10.87;100.00
8627;BME280;4351;51.422;6.794;2023-04-26T11:13:18;101770.69;;;10.61;100.00
8627;BME280;4351;51.422;6.794;2023-04-26T11:15:51;101773.78;;;10.73;100.00
8627;BME280;4351;51.422;6.794;2023-04-26T11:18:20;101767.72;;;10.67;100.00
8627;BME280;4351;51.422;6.794;2023-04-26T11:20:49;101764.28;;;10.64;100.00
8627;BME280;4351;51.422;6.794;2023-04-26T11:23:17;101785.69;;;10.25;100.00
8627;BME280;4351;51.422;6.794;2023-04-26T11:25:46;101777.28;;;10.33;100.00
8627;BME280;4351;51.422;6.794;2023-04-26T11:28:14;101775.34;;;10.14;100.00
8627;BME280;4351;51.422;6.794;2023-04-26T11:30:43;101776.03;;;10.19;100.00
8627;BME280;4351;51.422;6.794;2023-04-26T11:33:15;101776.84;;;10.21;100.00
8627;BME280;4351;51.422;6.794;2023-04-26T11:35:45;101762.56;;;10.19;100.00
8627;BME280;4351;51.422;6.794;2023-04-26T11:38:14;101764.88;;;10.29;100.00
8627;BME280;4351;51.422;6.794;2023-04-26T11:40:43;101747.44;;;10.36;100.00
8627;BME280;4351;51.422;6.794;2023-04-26T11:43:12;101751.50;;;10.26;100.00
8627;BME280;4351;51.422;6.794;2023-04-26T11:45:41;101745.44;;;10.41;100.00
8627;BME280;4351;51.422;6.794;2023-04-26T11:48:09;101744.75;;;10.15;100.00
8627;BME280;4351;51.422;6.794;2023-04-26T11:50:39;101750.09;;;10.38;100.00
8627;BME280;4351;51.422;6.794;2023-04-26T11:53:07;101718.28;;;10.86;100.00
8627;BME280;4351;51.422;6.794;2023-04-26T11:55:38;101736.25;;;10.87;100.00
8627;BME280;4351;51.422;6.794;2023-04-26T11:58:11;101757.16;;;10.40;100.00
8627;BME280;4351;51.422;6.794;2023-04-26T12:00:55;101740.91;;;10.84;100.00
8627;BME280;4351;51.422;6.794;2023-04-26T12:03:27;101753.94;;;10.74;100.00
8627;BME280;4351;51.422;6.794;2023-04-26T12:05:56;101746.84;;;10.71;100.00
8627;BME280;4351;51.422;6.794;2023-04-26T12:08:24;101763.97;;;10.49;100.00
8627;BME280;4351;51.422;6.794;2023-04-26T12:10:57;101767.56;;;10.29;100.00
8627;BME280;4351;51.422;6.794;2023-04-26T12:13:26;101758.78;;;10.23;100.00
8627;BME280;4351;51.422;6.794;2023-04-26T12:15:54;101761.75;;;10.38;100.00
8627;BME280;4351;51.422;6.794;2023-04-26T12:18:29;101760.09;;;10.56;100.00
8627;BME280;4351;51.422;6.794;2023-04-26T12:20:58;101755.06;;;10.47;100.00
8627;BME280;4351;51.422;6.794;2023-04-26T12:23:34;101756.06;;;10.44;100.00
8627;BME280;4351;51.422;6.794;2023-04-26T12:26:04;101769.31;;;10.30;100.00
8627;BME280;4351;51.422;6.794;2023-04-26T12:28:32;101766.44;;;10.12;100.00
8627;BME280;4351;51.422;6.794;2023-04-26T12:31:00;101752.56;;;10.21;100.00
8627;BME280;4351;51.422;6.794;2023-04-26T12:33:29;101750.63;;;10.67;100.00
8627;BME280;4351;51.422;6.794;2023-04-26T12:36:05;101763.72;;;10.34;100.00
8627;BME280;4351;51.422;6.794;2023-04-26T12:38:35;101754.34;;;10.43;100.00
8627;BME280;4351;51.422;6.794;2023-04-26T12:41:05;101743.56;;;10.43;100.00
8627;BME280;4351;51.422;6.794;2023-04-26T12:43:33;101740.59;;;10.50;100.00
8627;BME280;4351;51.422;6.794;2023-04-26T12:46:02;101735.06;;;10.74;100.00
8627;BME280;4351;51.422;6.794;2023-04-26T12:48:31;101722.25;;;10.98;100.00
8627;BME280;4351;51.422;6.794;2023-04-26T12:50:59;101703.41;;;11.35;100.00
8627;BME280;4351;51.422;6.794;2023-04-26T12:53:28;101695.22;;;11.37;100.00
8627;BME280;4351;51.422;6.794;2023-04-26T12:55:56;101714.09;;;11.38;100.00
8627;BME280;4351;51.422;6.794;2023-04-26T12:58:26;101707.94;;;11.15;100.00
8627;BME280;4351;51.422;6.794;2023-04-26T13:00:54;101691.94;;;11.30;100.00
8627;BME280;4351;51.422;6.794;2023-04-26T13:03:22;101697.00;;;11.19;100.00
8627;BME280;4351;51.422;6.794;2023-04-26T13:05:50;101694.47;;;11.53;100.00
8627;BME280;4351;51.422;6.794;2023-04-26T13:08:18;101692.91;;;11.29;100.00
8627;BME280;4351;51.422;6.794;2023-04-26T13:10:46;101704.31;;;11.17;100.00
8627;BME280;4351;51.422;6.794;2023-04-26T13:13:14;101709.69;;;11.36;100.00
8627;BME280;4351;51.422;6.794;2023-04-26T13:15:43;101724.06;;;11.36;100.00
8627;BME280;4351;51.422;6.794;2023-04-26T13:18:11;101715.13;;;11.17;100.00
8627;BME280;4351;51.422;6.794;2023-04-26T13:20:42;101690.88;;;11.52;100.00
8627;BME280;4351;51.422;6.794;2023-04-26T13:23:11;101694.66;;;11.11;100.00
8627;BME280;4351;51.422;6.794;2023-04-26T13:25:40;101698.47;;;10.87;100.00